Terminal Aerodrome Forecast
Issued by NWS Pendleton, OR

Home | Current Version | Previous Version | Text Only | Print | Product List | Glossary On
Versions: 1 2 3 4 5 6 7 8 9 10 11 12 13 14
000
FTUS46 KPDT 230759 AAB
TAFPDT
TAF AMD
KPDT 230759Z 2308/2406 24008KT P6SM SCT250
     FM231800 30010KT P6SM SCT250
     FM240400 15006KT P6SM SKC=

USA.gov is the U.S. government's official web portal to all federal, state and local government web resources and services.